메인 페이지
METAR-TAF:

METAR-TAF

공항 :

생드니, 레위니옹

롤랑 가로스 공항

위도: 20-53S, 경도: 055-31E, 고도: 21m

현재 날씨관측

예보는 38분 전, 09:00시(UTC)에 발표되었습니다.
서북서10kt
온도 26°C
습도 94%
기압 992 hPa
시정 10km 이상
고도 600ft 상공 구름 조금
고도 2300ft 상공 구름 조금, 적란운.
고도 3600ft 상공 구름 많음
고도 8000ft 상공 흐림
소나기

METAR: FMEE 180900Z 29010KT 9999 SHRA FEW006 FEW023CB BKN036 OVC080 26/25 Q0992 TEMPO 1500 SHRA

시각: 13:38 (09:38 UTC)

예보

예보는 4 시간 38분 전, 05:00시(UTC)에 발표되었습니다.
예보 대상 시간: 18일 06시부터 19일 12시까지 (UTC)
남남서5kt
시정 10km 이상
고도 2500ft 상공 구름 조금
고도 5000ft 상공 구름 보통
고도 8000ft 상공 구름 많음, 타워링 적운.
일시적
18일 06시부터 18일 10시까지 (UTC)
10kt
시정: 3000m
고도 1500ft 상공 구름 보통, 적란운.
고도 4000ft 상공 흐림
전환 중
18일 10시부터 18일 12시까지 (UTC)
25kt, 순간 최대 풍속 35kt
확률 40% :
일시적
18일 12시부터 19일 06시까지 (UTC)
서남서35kt, 순간 최대 풍속 45kt
시정: 1000m
고도 1500ft 상공 구름 보통, 적란운.
고도 2000ft 상공 흐림, 타워링 적운.
뇌우, 비

TAF: FMEE 180500Z 1806/1912 20005KT 9999 RA FEW025 SCT050 BKN080TCU TEMPO 1806/1810 26010KT 3000 SCT015CB OVC040 BECMG 1810/1812 28025G35KT PROB40 TEMPO 1812/1906 25035G45KT 1000 TSRA SCT015CB OVC020TCU

4,000개 이상의 공항 관측 자료 및 예보 (METAR 및 TAF 보고).

지도상에서 검색 가능한 기상관측소가 노란 점과 빨간 점으로 표시되어 있습니다.

기상관측소 명을 보려면 표시 위로 마우스를 이동하세요.

날씨 관측과 예보를 보려면 클릭하세요.

지도 변경 : 확대하려면 엑스 표시가 있는 녹색 버튼, 축소하려면 빼기 표시가 있는 녹색 버튼, 다음 페이지의 지도를 보려면 녹색 화살표를 클릭하세요.


METAR-TAF: